METAR Data
IDs: Format: Raw Decoded Include TAF

Data at: 0109 UTC 06 Dec 2019

KSNH 060055Z AUTO 19004KT 10SM FEW050 SCT075 SCT090 11/06 A3010 RMK A01
KSNH 060035Z AUTO 00000KT 10SM FEW033 SCT050 BKN090 10/06 A3009 RMK A01
KSNH 060015Z AUTO 00000KT 10SM FEW110 11/06 A3009 RMK A01
KSNH 052355Z AUTO 04003KT 10SM FEW049 SCT080 BKN095 11/07 A3009 RMK A01
KSNH 052335Z AUTO 00000KT 10SM FEW038 SCT075 OVC100 11/06 A3008 RMK A01
KSNH 052315Z AUTO 00000KT 10SM BKN075 BKN095 BKN120 11/06 A3008 RMK A01
KSNH 052255Z AUTO 00000KT 10SM FEW080 FEW090 BKN110 12/06 A3008 RMK A01
KSNH 052235Z AUTO 00000KT 10SM BKN110 13/05 A3008 RMK A01
KSNH 052215Z AUTO 00000KT 10SM SCT120 13/05 A3007 RMK A01
KSNH 052155Z AUTO 00000KT 10SM CLR 15/04 A3007 RMK A01
KSNH 052135Z AUTO 20004KT 10SM CLR 15/03 A3008 RMK A01
KSNH 052115Z AUTO 20004KT 10SM FEW120 16/02 A3007 RMK A01
KSNH 052055Z AUTO 19004KT 10SM FEW120 16/02 A3007 RMK A01
KSNH 052035Z AUTO 20005KT 10SM FEW110 16/02 A3007 RMK A01
KSNH 052015Z AUTO 17005KT 10SM CLR 16/02 A3008 RMK A01
KSNH 051955Z AUTO 20007KT 10SM CLR 16/02 A3007 RMK A01
KSNH 051935Z AUTO 18008KT 10SM FEW120 17/02 A3007 RMK A01
KSNH 051915Z AUTO 20009KT 10SM CLR 16/02 A3007 RMK A01
KSNH 051855Z AUTO 17006KT 10SM CLR 16/03 A3009 RMK A01
KSNH 051835Z AUTO 20006KT 10SM CLR 16/02 A3009 RMK A01
KSNH 051815Z AUTO 20008KT 10SM CLR 16/02 A3010 RMK A01
KSNH 051755Z AUTO 21007KT 10SM CLR 16/02 A3011 RMK A01
KSNH 051735Z AUTO 21010KT 10SM CLR 16/01 A3011 RMK A01
KSNH 051715Z AUTO 20009KT 10SM CLR 15/02 A3012 RMK A01
KSNH 051655Z AUTO VRB05KT 10SM CLR 15/03 A3013 RMK A01
KSNH 051615Z AUTO 19003KT 10SM CLR 13/05 A3014 RMK A01
KSNH 051555Z AUTO 00000KT 10SM CLR 11/05 A3015 RMK A01
KSNH 051535Z AUTO 00000KT 10SM CLR 10/05 A3014 RMK A01
KSNH 051515Z AUTO 00000KT 10SM CLR 09/05 A3014 RMK A01
KSNH 051455Z AUTO 00000KT 10SM CLR 07/05 A3014 RMK A01
KSNH 051435Z AUTO 00000KT 10SM CLR 07/05 A3013 RMK A01
KSNH 051415Z AUTO 00000KT 10SM CLR 06/05 A3013 RMK A01
KSNH 051355Z AUTO 00000KT 10SM CLR 04/03 A3013 RMK A01
KSNH 051335Z AUTO 00000KT 10SM CLR 02/01 A3013 RMK A01
KSNH 051315Z AUTO 00000KT 10SM CLR 01/01 A3012 RMK A01
KSNH 051255Z AUTO 00000KT 10SM CLR 01/01 A3011 RMK A01
KSNH 051235Z AUTO 00000KT 10SM CLR 02/01 A3011 RMK A01
KSNH 051215Z AUTO 00000KT 10SM CLR 02/02 A3010 RMK A01
KSNH 051155Z AUTO 00000KT 10SM CLR 02/01 A3009 RMK A01
KSNH 051135Z AUTO 00000KT 10SM CLR 02/01 A3008 RMK A01
KSNH 051115Z AUTO 00000KT 10SM CLR 02/02 A3007 RMK A01
KSNH 051055Z AUTO 00000KT 10SM CLR 02/01 A3007 RMK A01
KSNH 051035Z AUTO 00000KT 10SM CLR 02/01 A3007 RMK A01
KSNH 051015Z AUTO 00000KT 10SM CLR 02/01 A3006 RMK A01
KSNH 050955Z AUTO 00000KT 10SM CLR 01/01 A3006 RMK A01
KSNH 050935Z AUTO 00000KT 10SM CLR 01/01 A3005 RMK A01
KSNH 050915Z AUTO 00000KT 10SM CLR 01/01 A3005 RMK A01
KSNH 050855Z AUTO 00000KT 10SM CLR 01/00 A3005 RMK A01
KSNH 050835Z AUTO 00000KT 01/00 A3005 RMK A01
KSNH 050810Z AUTO 00000KT 10SM CLR 01/00 A3004 RMK A01
KSNH 050755Z AUTO 00000KT 10SM CLR 01/01 A3004 RMK A01
KSNH 050735Z AUTO 00000KT 10SM CLR 01/00 A3004 RMK A01
KSNH 050715Z AUTO 00000KT 10SM CLR 01/00 A3003 RMK A01
KSNH 050655Z AUTO 00000KT 10SM CLR 01/00 A3003 RMK A01
KSNH 050615Z AUTO 00000KT 10SM CLR 01/00 A3003 RMK A01
KSNH 050555Z AUTO 00000KT 10SM CLR 01/00 A3003 RMK A01
KSNH 050535Z AUTO 00000KT 10SM CLR 02/01 A3003 RMK A01
KSNH 050515Z AUTO 00000KT 10SM CLR 02/01 A3002 RMK A01
KSNH 050455Z AUTO 00000KT 10SM CLR 02/01 A3003 RMK A01
KSNH 050435Z AUTO 00000KT 10SM CLR 02/01 A3003 RMK A01
KSNH 050415Z AUTO 00000KT 10SM CLR 02/01 A3003 RMK A01
KSNH 050355Z AUTO 00000KT 10SM CLR 02/01 A3003 RMK A01
KSNH 050335Z AUTO 00000KT 10SM CLR 02/01 A3003 RMK A01
KSNH 050315Z AUTO 00000KT 10SM CLR 02/02 A3003 RMK A01
KSNH 050255Z AUTO 00000KT 10SM CLR 02/01 A3002 RMK A01
KSNH 050235Z AUTO 00000KT 10SM CLR 02/02 A3002 RMK A01
KSNH 050215Z AUTO 00000KT 10SM CLR 03/02 A3001 RMK A01
KSNH 050155Z AUTO 00000KT 10SM CLR 03/02 A3000 RMK A01
KSNH 050135Z AUTO 00000KT 10SM CLR 04/02 A2999 RMK A01
KSNH 050115Z AUTO 00000KT 10SM CLR 04/03 A2999 RMK A01
KSNH 050055Z AUTO 00000KT 10SM CLR 05/03 A2999 RMK A01
KSNH 050035Z AUTO 00000KT 10SM CLR 05/03 A2999 RMK A01
KSNH 050015Z AUTO 00000KT 10SM CLR 06/03 A2998 RMK A01
KSNH 042355Z AUTO 00000KT 10SM CLR 07/03 A2998 RMK A01
KSNH 042335Z AUTO 00000KT 10SM CLR 08/03 A2998 RMK A01
KSNH 042315Z AUTO 00000KT 10SM CLR 10/01 A2997 RMK A01
KSNH 042255Z AUTO 00000KT 1SM HZ CLR 13/M01 A2996 RMK A01
KSNH 042235Z AUTO 00000KT 10SM CLR 13/M01 A2996 RMK A01
KSNH 042215Z AUTO 00000KT 10SM CLR 15/M01 A2996 RMK A01
KSNH 042155Z AUTO 28005G10KT 10SM CLR 15/M01 A2995 RMK A01
KSNH 042135Z AUTO VRB05KT 10SM CLR 15/M01 A2996 RMK A01
KSNH 042115Z AUTO 28005KT 10SM CLR 16/M01 A2994 RMK A01
KSNH 042055Z AUTO 27007KT 10SM CLR 16/M01 A2994 RMK A01
KSNH 042035Z AUTO 00000KT 10SM CLR 16/M01 A2993 RMK A01
KSNH 042015Z AUTO VRB05G11KT 10SM CLR 16/M01 A2993 RMK A01
KSNH 041955Z AUTO 31006KT 10SM CLR 16/01 A2993 RMK A01
KSNH 041935Z AUTO VRB04G12KT 10SM CLR 15/01 A2992 RMK A01
KSNH 041915Z AUTO VRB06G12KT 220V310 10SM CLR 15/01 A2993 RMK A01
KSNH 041855Z AUTO 25009KT 10SM CLR 15/01 A2994 RMK A01
KSNH 041835Z AUTO 25008KT 10SM CLR 14/02 A2994 RMK A01
KSNH 041815Z AUTO 25008KT 10SM CLR 14/02 A2994 RMK A01
KSNH 041755Z AUTO VRB04G10KT 10SM CLR 14/02 A2995 RMK A01
KSNH 041735Z AUTO 00000KT 10SM CLR 13/02 A2996 RMK A01
KSNH 041715Z AUTO 00000KT 10SM CLR 13/02 A2996 RMK A01
KSNH 041655Z AUTO VRB03KT 10SM CLR 12/03 A2997 RMK A01
KSNH 041635Z AUTO 00000KT 10SM CLR 11/03 A2998 RMK A01
KSNH 041615Z AUTO 00000KT 10SM CLR 10/03 A2998 RMK A01
KSNH 041555Z AUTO 34004KT 10SM CLR 09/03 A2998 RMK A01
KSNH 041535Z AUTO VRB04KT 10SM CLR 09/02 A2998 RMK A01
KSNH 041515Z AUTO VRB03KT 10SM CLR 08/03 A2998 RMK A01
KSNH 041455Z AUTO 00000KT 10SM CLR 06/03 A2997 RMK A01
KSNH 041435Z AUTO 00000KT 10SM CLR 04/03 A2996 RMK A01
KSNH 041415Z AUTO 00000KT 10SM CLR 02/02 A2996 RMK A01
KSNH 041355Z AUTO 00000KT 10SM CLR 00/00 A2995 RMK A01
KSNH 041335Z AUTO 00000KT 10SM CLR M00/M01 A2994 RMK A01
KSNH 041315Z AUTO 00000KT 10SM CLR M01/M01 A2994 RMK A01